TimePST,TemperatureF,Dew PointF,Humidity,Sea Level PressureIn,VisibilityMPH,Wind Direction,Wind SpeedMPH,Gust SpeedMPH,PrecipitationIn,Events,Conditions,WindDirDegrees,DateUTC
12:15 AM,45.7,40.3,81,-9999,10.0,SW,17.3,21.9,N/A,,Overcast,230,2013-12-02 08:15:00
12:35 AM,45.5,40.6,83,-9999,10.0,WSW,9.2,-,N/A,,Overcast,240,2013-12-02 08:35:00
12:55 AM,45.3,40.5,83,-9999,10.0,SW,15.0,-,N/A,,Overcast,230,2013-12-02 08:55:00
1:15 AM,46.0,40.1,80,-9999,10.0,SW,12.7,28.8,N/A,,Overcast,230,2013-12-02 09:15:00
1:35 AM,46.4,39.7,78,-9999,10.0,SW,15.0,27.6,N/A,,Overcast,230,2013-12-02 09:35:00
1:50 AM,46.6,39.6,77,-9999,10.0,WSW,16.1,29.9,N/A,,Overcast,240,2013-12-02 09:50:00
2:15 AM,46.0,39.4,78,-9999,10.0,SW,16.1,25.3,N/A,,Overcast,230,2013-12-02 10:15:00
2:35 AM,46.2,39.2,76,-9999,10.0,SW,18.4,24.2,N/A,,Overcast,230,2013-12-02 10:35:00
2:55 AM,46.2,39.0,76,-9999,10.0,SW,15.0,32.2,N/A,,Overcast,230,2013-12-02 10:55:00
3:15 AM,46.4,38.7,74,-9999,10.0,WSW,15.0,20.7,N/A,,Overcast,240,2013-12-02 11:15:00
3:35 AM,46.6,38.3,73,-9999,10.0,WSW,19.6,26.5,N/A,,Overcast,240,2013-12-02 11:35:00
3:55 AM,46.6,37.8,71,-9999,10.0,WSW,17.3,29.9,N/A,,Overcast,240,2013-12-02 11:55:00
4:15 AM,46.4,37.8,72,-9999,10.0,WSW,13.8,25.3,N/A,,Overcast,250,2013-12-02 12:15:00
4:35 AM,46.2,37.9,73,-9999,10.0,WSW,20.7,34.5,N/A,,Overcast,240,2013-12-02 12:35:00
4:55 AM,45.9,37.8,73,-9999,10.0,WSW,15.0,18.4,N/A,,Overcast,250,2013-12-02 12:55:00
5:15 AM,45.5,37.6,74,-9999,10.0,WSW,18.4,25.3,N/A,,Overcast,250,2013-12-02 13:15:00
5:35 AM,45.3,37.0,73,-9999,10.0,WSW,17.3,-,N/A,,Overcast,240,2013-12-02 13:35:00
5:55 AM,45.0,36.9,73,-9999,10.0,WSW,15.0,-,N/A,,Overcast,240,2013-12-02 13:55:00
6:15 AM,44.8,36.3,72,-9999,10.0,WSW,18.4,24.2,N/A,,Mostly Cloudy,240,2013-12-02 14:15:00
6:35 AM,44.8,36.0,71,-9999,10.0,WSW,20.7,26.5,N/A,,Overcast,240,2013-12-02 14:35:00
6:55 AM,43.5,36.7,77,-9999,5.0,West,10.4,21.9,0.01,,Overcast,270,2013-12-02 14:55:00
7:15 AM,42.4,36.7,80,-9999,3.0,West,17.3,28.8,0.02,,Overcast,280,2013-12-02 15:15:00
7:35 AM,42.1,36.7,81,-9999,10.0,West,13.8,23.0,0.02,,Overcast,260,2013-12-02 15:35:00
7:55 AM,39.9,34.7,82,29.64,10.0,NNW,16.1,20.7,0.02,,Overcast,330,2013-12-02 15:55:00
8:15 AM,35.2,32.0,88,-9999,5.0,NNW,13.8,24.2,N/A,,Overcast,330,2013-12-02 16:15:00
8:35 AM,34.0,30.7,88,-9999,10.0,NNW,20.7,25.3,N/A,,Overcast,330,2013-12-02 16:35:00
8:55 AM,33.1,30.2,89,-9999,10.0,NNW,13.8,23.0,N/A,,Overcast,330,2013-12-02 16:55:00
9:15 AM,33.3,30.4,89,-9999,10.0,NNW,8.1,19.6,N/A,,Overcast,330,2013-12-02 17:15:00
9:35 AM,32.9,29.5,87,-9999,10.0,North,13.8,18.4,N/A,,Overcast,350,2013-12-02 17:35:00
9:55 AM,32.0,27.9,85,-9999,10.0,North,8.1,16.1,N/A,,Overcast,350,2013-12-02 17:55:00
10:15 AM,31.6,27.9,86,-9999,10.0,East,3.5,-,N/A,,Overcast,100,2013-12-02 18:15:00
10:35 AM,31.5,27.5,85,-9999,10.0,NNE,4.6,-,N/A,,Overcast,30,2013-12-02 18:35:00
10:55 AM,31.8,27.3,83,-9999,10.0,ESE,8.1,-,N/A,,Overcast,110,2013-12-02 18:55:00
11:15 AM,32.0,27.3,83,29.76,10.0,WNW,10.4,16.1,N/A,,Overcast,300,2013-12-02 19:15:00
11:35 AM,32.4,26.6,79,29.75,10.0,NNW,13.8,19.6,N/A,,Overcast,330,2013-12-02 19:35:00
11:55 AM,32.4,26.2,78,29.72,4.0,NNW,9.2,-,N/A,,Overcast,330,2013-12-02 19:55:00
12:15 PM,32.0,26.8,81,-9999,3.0,NW,9.2,-,N/A,,Overcast,320,2013-12-02 20:15:00
12:35 PM,31.5,27.7,86,-9999,0.8,WNW,5.8,-,N/A,,Overcast,300,2013-12-02 20:35:00
12:55 PM,31.3,28.0,88,-9999,7.0,West,4.6,-,N/A,,Overcast,280,2013-12-02 20:55:00
1:15 PM,31.6,26.6,82,-9999,2.0,WNW,12.7,17.3,N/A,,Overcast,290,2013-12-02 21:15:00
1:35 PM,31.1,25.5,80,-9999,2.0,WSW,10.4,-,N/A,,Overcast,240,2013-12-02 21:35:00
1:55 PM,31.1,26.6,83,29.76,10.0,West,6.9,-,N/A,,Overcast,270,2013-12-02 21:55:00
2:15 PM,31.1,26.1,82,29.76,10.0,North,8.1,-,N/A,,Mostly Cloudy,360,2013-12-02 22:15:00
2:35 PM,30.0,25.7,84,29.77,10.0,NE,3.5,-,N/A,,Overcast,40,2013-12-02 22:35:00
2:55 PM,29.8,26.2,86,29.77,10.0,SE,5.8,-,N/A,,Overcast,140,2013-12-02 22:55:00
3:15 PM,30.7,26.6,85,29.78,10.0,NNE,10.4,-,N/A,,Overcast,30,2013-12-02 23:15:00
3:35 PM,30.0,23.9,78,29.79,10.0,WNW,16.1,20.7,N/A,,Overcast,300,2013-12-02 23:35:00
3:55 PM,28.4,24.6,86,29.79,0.5,NW,15.0,19.6,N/A,,Overcast,320,2013-12-02 23:55:00
4:15 PM,27.5,25.2,91,29.80,0.2,West,10.4,16.1,N/A,,Overcast,280,2013-12-03 00:15:00
4:35 PM,27.3,25.2,92,29.80,2.5,West,4.6,-,0.01,,Overcast,280,2013-12-03 00:35:00
4:55 PM,27.5,24.6,89,29.80,1.8,West,6.9,-,0.01,,Overcast,280,2013-12-03 00:55:00
5:15 PM,27.5,23.7,86,29.80,5.0,Calm,Calm,-,N/A,,Overcast,0,2013-12-03 01:15:00
5:35 PM,27.3,23.9,87,29.81,10.0,Calm,Calm,-,N/A,,Overcast,0,2013-12-03 01:35:00
5:55 PM,27.5,24.3,88,29.81,3.0,Calm,Calm,-,N/A,,Overcast,0,2013-12-03 01:55:00
6:15 PM,27.3,24.6,90,29.81,4.0,East,4.6,-,N/A,,Overcast,80,2013-12-03 02:15:00
6:35 PM,27.1,24.8,91,29.81,3.0,ESE,4.6,-,N/A,,Overcast,110,2013-12-03 02:35:00
6:55 PM,27.1,25.0,92,29.82,0.8,SE,4.6,-,0.01,,Overcast,130,2013-12-03 02:55:00
7:15 PM,27.1,25.0,92,29.82,2.0,Calm,Calm,-,0.02,,Overcast,0,2013-12-03 03:15:00
7:35 PM,27.3,24.4,89,29.83,1.8,West,10.4,-,0.02,,Overcast,280,2013-12-03 03:35:00
7:55 PM,27.1,23.5,86,29.83,3.0,West,4.6,-,0.02,,Overcast,260,2013-12-03 03:55:00
8:15 PM,26.4,22.5,85,29.84,10.0,South,3.5,-,N/A,,Overcast,190,2013-12-03 04:15:00
8:35 PM,25.9,23.0,89,29.84,10.0,WSW,3.5,-,N/A,,Overcast,240,2013-12-03 04:35:00
8:55 PM,26.1,22.6,87,29.84,10.0,Calm,Calm,-,N/A,,Overcast,0,2013-12-03 04:55:00
9:15 PM,25.5,20.8,82,29.84,10.0,SW,5.8,-,N/A,,Overcast,230,2013-12-03 05:15:00
9:35 PM,25.5,20.1,80,29.84,10.0,SW,4.6,-,N/A,,Overcast,230,2013-12-03 05:35:00
9:55 PM,25.5,19.4,78,29.85,10.0,WSW,3.5,-,N/A,,Overcast,250,2013-12-03 05:55:00
10:15 PM,25.0,20.1,82,29.85,10.0,WSW,6.9,-,N/A,,Overcast,250,2013-12-03 06:15:00
10:35 PM,25.9,22.6,88,29.86,3.0,West,3.5,-,N/A,,Overcast,260,2013-12-03 06:35:00
10:55 PM,26.2,22.6,86,29.86,4.0,Calm,Calm,-,N/A,,Overcast,0,2013-12-03 06:55:00
11:15 PM,25.7,22.5,88,29.86,7.0,Calm,Calm,-,N/A,,Overcast,0,2013-12-03 07:15:00
11:35 PM,25.2,22.1,88,29.86,7.0,WSW,3.5,-,N/A,,Overcast,240,2013-12-03 07:35:00
11:55 PM,25.0,22.1,89,29.86,4.0,WSW,5.8,-,N/A,,Overcast,240,2013-12-03 07:55:00